Time;durP1;ratioP1;P1;durP2;ratioP2;P2;SDS_P1;SDS_P2;PMS_P1;PMS_P2;Temp;Humidity;BMP_temperature;BMP_pressure;BME280_temperature;BME280_humidity;BME280_pressure;Samples;Min_cycle;Max_cycle;Signal;HPM_P1;HPM_P2
2023/05/22 00:01:06;;;;;;;35.78;25.70;;;;;;;16.69;100.00;99056.63;5097956;28;20054;-62
2023/05/22 00:03:35;;;;;;;43.03;26.70;;;;;;;16.57;100.00;99057.84;5099797;28;20555;-62
2023/05/22 00:06:08;;;;;;;43.40;26.80;;;;;;;16.56;100.00;99053.50;5098365;28;20046;-62
2023/05/22 00:08:35;;;;;;;36.67;26.48;;;;;;;16.50;100.00;99057.38;5091086;28;20047;-61
2023/05/22 00:11:03;;;;;;;39.10;26.45;;;;;;;16.46;100.00;99052.81;5093018;28;20039;-63
2023/05/22 00:13:30;;;;;;;41.42;27.42;;;;;;;16.23;100.00;99048.97;5079683;28;20047;-62
2023/05/22 00:15:58;;;;;;;39.08;26.88;;;;;;;16.25;100.00;99054.88;5100544;28;20050;-62
2023/05/22 00:18:26;;;;;;;38.53;26.77;;;;;;;16.18;100.00;99056.03;5097355;28;20043;-64
2023/05/22 00:20:54;;;;;;;38.35;27.05;;;;;;;16.13;100.00;99053.38;5099543;28;20540;-63
2023/05/22 00:23:22;;;;;;;41.13;27.77;;;;;;;16.15;100.00;99062.00;5097537;28;20040;-64
2023/05/22 00:25:49;;;;;;;36.50;26.60;;;;;;;16.13;100.00;99061.50;5101954;28;20051;-63
2023/05/22 00:28:16;;;;;;;43.22;29.83;;;;;;;16.17;100.00;99051.72;5097805;28;20044;-63
2023/05/22 00:30:43;;;;;;;39.72;27.48;;;;;;;16.14;100.00;99054.97;5082169;28;20036;-63
2023/05/22 00:33:12;;;;;;;40.42;28.42;;;;;;;16.10;100.00;99055.81;5096870;28;20036;-62
2023/05/22 00:35:39;;;;;;;45.42;27.00;;;;;;;16.05;100.00;99050.47;5105694;28;20043;-63
2023/05/22 00:38:06;;;;;;;44.63;29.55;;;;;;;15.98;100.00;99050.00;5095979;28;20126;-63
2023/05/22 00:40:33;;;;;;;41.78;28.02;;;;;;;15.94;100.00;99044.34;5102070;28;20042;-64
2023/05/22 00:43:06;;;;;;;41.67;28.45;;;;;;;15.94;100.00;99041.63;5098573;28;20120;-63
2023/05/22 00:45:33;;;;;;;41.15;28.15;;;;;;;15.86;100.00;99044.94;5093546;28;20070;-63
2023/05/22 00:48:00;;;;;;;44.17;29.00;;;;;;;15.84;100.00;99041.72;5077958;28;20039;-63
2023/05/22 00:50:29;;;;;;;42.67;29.55;;;;;;;15.83;100.00;99040.09;5103729;28;20473;-63
2023/05/22 00:52:56;;;;;;;45.65;29.35;;;;;;;15.80;100.00;99046.88;5103247;28;20085;-63
2023/05/22 00:55:23;;;;;;;48.65;29.75;;;;;;;15.81;100.00;99042.28;5103718;28;20058;-62
2023/05/22 00:57:50;;;;;;;45.15;30.05;;;;;;;15.84;100.00;99044.41;5095084;28;20482;-63
2023/05/22 01:00:18;;;;;;;44.53;30.58;;;;;;;15.83;100.00;99046.31;5096535;28;20035;-63
2023/05/22 01:02:45;;;;;;;43.88;30.10;;;;;;;15.73;100.00;99049.88;5084734;28;20052;-63
2023/05/22 01:05:16;;;;;;;44.65;29.45;;;;;;;15.70;100.00;99038.81;5101964;28;20071;-63
2023/05/22 01:07:45;;;;;;;48.13;31.00;;;;;;;15.67;100.00;99039.34;5098537;28;20051;-63
2023/05/22 01:10:12;;;;;;;44.92;30.08;;;;;;;15.74;100.00;99043.38;5096333;28;20163;-63
2023/05/22 01:12:44;;;;;;;45.70;29.83;;;;;;;15.70;100.00;99053.16;5086799;28;20448;-63
2023/05/22 01:15:16;;;;;;;42.00;26.85;;;;;;;15.42;100.00;99046.53;5099902;28;20039;-63
2023/05/22 01:17:52;;;;;;;43.47;30.00;;;;;;;15.40;100.00;99042.47;5084989;28;20046;-63
2023/05/22 01:20:24;;;;;;;45.10;29.30;;;;;;;15.35;100.00;99040.66;5084188;28;20125;-63
2023/05/22 01:23:34;;;;;;;40.55;27.45;;;;;;;15.27;100.00;99039.31;5102540;28;20066;-63
2023/05/22 01:26:19;;;;;;;41.45;27.25;;;;;;;15.14;100.00;99039.91;5095148;28;20044;-63
2023/05/22 01:29:02;;;;;;;48.28;29.05;;;;;;;15.00;100.00;99042.41;5097805;28;20051;-63
2023/05/22 01:31:31;;;;;;;40.67;27.83;;;;;;;15.09;100.00;99035.34;5101786;28;20308;-63
2023/05/22 01:34:00;;;;;;;40.67;28.40;;;;;;;14.98;100.00;99035.69;5099306;28;20431;-63
2023/05/22 01:36:29;;;;;;;41.55;27.85;;;;;;;14.97;100.00;99040.25;5086554;28;20044;-62
2023/05/22 01:38:57;;;;;;;38.92;26.23;;;;;;;14.65;100.00;99041.44;5091955;28;20055;-62
2023/05/22 01:41:26;;;;;;;41.92;28.45;;;;;;;14.64;100.00;99039.81;5081346;28;20319;-63
2023/05/22 01:43:52;;;;;;;45.45;29.50;;;;;;;14.63;100.00;99049.00;5104657;28;20382;-63
2023/05/22 01:46:19;;;;;;;45.58;29.20;;;;;;;14.73;100.00;99050.88;5096316;28;20131;-63
2023/05/22 01:48:49;;;;;;;45.08;30.45;;;;;;;14.66;100.00;99045.75;5092679;28;20036;-63
2023/05/22 01:51:19;;;;;;;50.30;32.70;;;;;;;14.72;100.00;99041.16;5080654;28;20039;-63
2023/05/22 01:53:49;;;;;;;49.67;31.98;;;;;;;14.84;100.00;99040.84;5102657;28;20056;-63
2023/05/22 01:56:21;;;;;;;46.85;30.73;;;;;;;14.54;100.00;99037.16;5081598;28;20178;-63
2023/05/22 01:58:51;;;;;;;52.65;33.50;;;;;;;14.65;100.00;99038.75;5094054;28;20182;-63
2023/05/22 02:01:19;;;;;;;;;;;;;;;14.78;100.00;99047.34;5080436;28;20071;-63
2023/05/22 02:04:06;;;;;;;55.38;34.55;;;;;;;14.86;100.00;99041.38;5091430;28;20412;-63
2023/05/22 02:06:52;;;;;;;51.25;33.67;;;;;;;14.86;100.00;99039.50;5078853;28;20086;-64
2023/05/22 02:09:19;;;;;;;49.13;31.45;;;;;;;14.82;100.00;99043.81;5079019;28;20428;-64
2023/05/22 02:11:46;;;;;;;50.47;34.58;;;;;;;14.66;100.00;99044.94;5087508;28;20044;-63
2023/05/22 02:14:14;;;;;;;40.65;25.48;;;;;;;14.17;100.00;99040.94;5077085;28;20670;-63
2023/05/22 02:16:45;;;;;;;37.58;26.58;;;;;;;13.99;100.00;99046.88;5074750;28;20574;-63
2023/05/22 02:19:14;;;;;;;56.40;34.58;;;;;;;14.07;100.00;99038.25;5064144;28;20048;-63
2023/05/22 02:21:41;;;;;;;61.05;39.15;;;;;;;14.37;100.00;99037.41;5096872;28;20137;-63
2023/05/22 02:24:08;;;;;;;65.05;39.30;;;;;;;14.51;100.00;99028.78;5096160;28;20044;-63
2023/05/22 02:26:36;;;;;;;62.40;38.80;;;;;;;14.55;100.00;99032.56;5101909;28;20048;-63
2023/05/22 02:29:03;;;;;;;63.03;37.72;;;;;;;14.54;100.00;99030.94;5083678;28;20127;-62
2023/05/22 02:31:30;;;;;;;60.90;36.97;;;;;;;14.47;100.00;99028.50;5096461;28;20044;-63
2023/05/22 02:33:57;;;;;;;62.63;38.13;;;;;;;14.53;100.00;99035.53;5082739;28;20101;-63
2023/05/22 02:36:26;;;;;;;56.28;34.90;;;;;;;14.44;100.00;99035.25;5078058;28;20551;-62
2023/05/22 02:38:54;;;;;;;66.65;40.42;;;;;;;14.37;100.00;99032.00;5097234;28;20118;-63
2023/05/22 02:41:21;;;;;;;49.20;32.40;;;;;;;14.33;100.00;99025.56;5078706;28;20733;-63
2023/05/22 02:43:49;;;;;;;56.92;34.55;;;;;;;14.17;100.00;99027.44;5081471;28;20055;-63
2023/05/22 02:46:16;;;;;;;53.85;33.90;;;;;;;13.90;100.00;99025.03;5076127;28;20089;-63
2023/05/22 02:48:44;;;;;;;73.18;42.88;;;;;;;14.16;100.00;99025.06;5074417;28;20048;-62
2023/05/22 02:51:11;;;;;;;74.63;42.65;;;;;;;14.28;100.00;99020.19;5079823;28;20050;-63
2023/05/22 02:53:40;;;;;;;75.20;44.03;;;;;;;14.31;100.00;99014.25;5097809;28;20075;-63
2023/05/22 02:56:09;;;;;;;67.63;41.22;;;;;;;14.39;100.00;99019.06;5082084;28;20043;-63
2023/05/22 02:58:37;;;;;;;50.58;31.90;;;;;;;13.96;100.00;99026.66;5100290;28;20052;-63
2023/05/22 03:01:05;;;;;;;60.88;32.65;;;;;;;13.88;100.00;99029.06;5098621;28;20050;-62
2023/05/22 03:03:32;;;;;;;59.67;36.83;;;;;;;13.92;100.00;99024.78;5083826;28;20076;-63
2023/05/22 03:06:00;;;;;;;75.72;43.40;;;;;;;14.11;100.00;99023.16;5094511;28;20048;-63
2023/05/22 03:08:28;;;;;;;75.13;44.00;;;;;;;14.19;100.00;99019.09;5083082;28;20044;-63
2023/05/22 03:10:57;;;;;;;57.25;36.25;;;;;;;13.88;100.00;99019.13;5085198;28;20100;-63
2023/05/22 03:13:24;;;;;;;75.80;43.72;;;;;;;13.89;100.00;99031.50;5083890;28;20062;-63
2023/05/22 03:15:51;;;;;;;88.57;47.60;;;;;;;14.14;100.00;99032.59;5083326;28;20074;-63
2023/05/22 03:18:20;;;;;;;83.28;46.47;;;;;;;14.13;100.00;99036.38;5086646;28;20070;-63
2023/05/22 03:20:47;;;;;;;79.85;45.30;;;;;;;14.09;100.00;99032.59;5082604;28;20200;-63
2023/05/22 03:23:15;;;;;;;89.28;48.58;;;;;;;14.13;100.00;99029.09;5089221;28;20144;-63
2023/05/22 03:25:42;;;;;;;88.00;47.55;;;;;;;14.16;100.00;99030.44;5083680;28;20097;-62
2023/05/22 03:28:11;;;;;;;75.22;43.47;;;;;;;14.14;100.00;99029.91;5100482;28;20124;-63
2023/05/22 03:30:40;;;;;;;69.60;42.38;;;;;;;14.10;100.00;99024.22;5104382;28;20040;-63
2023/05/22 03:33:16;;;;;;;73.65;43.22;;;;;;;13.99;100.00;99020.72;5088849;28;20056;-63
2023/05/22 03:35:43;;;;;;;88.35;48.83;;;;;;;14.04;100.00;99025.31;5088981;28;20047;-62
2023/05/22 03:38:11;;;;;;;69.28;41.47;;;;;;;14.01;100.00;99032.06;5075543;28;20440;-62
2023/05/22 03:40:38;;;;;;;53.22;32.83;;;;;;;13.87;100.00;99035.53;5101598;28;20142;-63
2023/05/22 03:43:05;;;;;;;62.97;38.28;;;;;;;13.88;100.00;99038.00;5087894;28;20520;-63
2023/05/22 03:45:34;;;;;;;52.05;34.50;;;;;;;13.68;100.00;99029.88;5077031;28;20071;-63
2023/05/22 03:48:02;;;;;;;46.95;31.35;;;;;;;13.64;100.00;99037.69;5081092;28;20126;-63
2023/05/22 03:50:29;;;;;;;57.10;34.50;;;;;;;13.78;100.00;99040.69;5084262;28;20104;-64
2023/05/22 03:52:56;;;;;;;71.57;43.25;;;;;;;14.01;100.00;99034.75;5107161;28;20494;-63
2023/05/22 03:55:23;;;;;;;76.03;44.17;;;;;;;14.02;100.00;99030.97;5096556;28;20121;-63
2023/05/22 03:57:50;;;;;;;76.65;37.45;;;;;;;13.95;100.00;99032.31;5077571;28;20089;-64
2023/05/22 04:00:18;;;;;;;66.47;38.67;;;;;;;13.76;100.00;99032.03;5079133;28;20044;-62
2023/05/22 04:02:49;;;;;;;86.90;46.95;;;;;;;14.17;100.00;99032.03;5101749;28;20051;-61
2023/05/22 04:05:17;;;;;;;65.22;39.22;;;;;;;14.10;100.00;99026.13;5080421;28;20040;-64
2023/05/22 04:07:44;;;;;;;53.95;32.33;;;;;;;13.82;100.00;99030.97;5085189;28;20036;-63
2023/05/22 04:10:11;;;;;;;44.30;29.08;;;;;;;13.84;100.00;99036.91;5097199;28;20480;-63
2023/05/22 04:12:39;;;;;;;42.90;27.60;;;;;;;13.24;100.00;99035.69;5101156;28;20217;-63
2023/05/22 04:15:07;;;;;;;48.40;29.77;;;;;;;13.31;100.00;99036.28;5082623;28;20118;-63
2023/05/22 04:17:39;;;;;;;52.38;34.17;;;;;;;13.65;100.00;99041.19;5087987;28;20471;-64
2023/05/22 04:20:08;;;;;;;61.33;37.33;;;;;;;14.00;100.00;99040.41;5097757;28;20449;-63
2023/05/22 04:22:37;;;;;;;55.92;36.10;;;;;;;13.95;100.00;99048.47;5100056;28;20428;-63
2023/05/22 04:25:05;;;;;;;64.60;35.67;;;;;;;14.13;100.00;99041.78;5093872;28;20513;-63
2023/05/22 04:27:33;;;;;;;59.30;35.00;;;;;;;14.13;100.00;99042.56;5097002;28;20054;-62
2023/05/22 04:30:01;;;;;;;60.38;37.03;;;;;;;14.28;100.00;99049.00;5100424;28;20044;-63
2023/05/22 04:32:28;;;;;;;52.90;33.80;;;;;;;14.26;100.00;99054.69;5081434;28;20055;-63
2023/05/22 04:34:57;;;;;;;48.78;32.72;;;;;;;14.33;100.00;99049.03;5083820;28;20044;-63
2023/05/22 04:37:27;;;;;;;48.13;32.08;;;;;;;14.56;100.00;99055.75;5098341;28;20139;-63
2023/05/22 04:39:57;;;;;;;51.30;30.27;;;;;;;14.74;100.00;99060.56;5079906;28;20059;-64
2023/05/22 04:42:27;;;;;;;41.13;27.10;;;;;;;14.86;100.00;99058.38;5103616;28;20467;-63
2023/05/22 04:44:56;;;;;;;47.25;30.40;;;;;;;15.29;100.00;99061.44;5093599;28;20055;-63
2023/05/22 04:47:23;;;;;;;43.47;28.77;;;;;;;15.37;100.00;99059.25;5103723;28;20508;-62
2023/05/22 04:49:51;;;;;;;39.40;25.80;;;;;;;15.39;100.00;99067.88;5087589;28;20127;-63
2023/05/22 04:52:18;;;;;;;35.03;25.45;;;;;;;14.88;100.00;99064.31;5081147;28;20088;-63
2023/05/22 04:55:07;;;;;;;39.08;25.67;;;;;;;14.91;100.00;99073.75;5082978;28;20051;-61
2023/05/22 04:57:52;;;;;;;34.67;25.25;;;;;;;14.67;100.00;99074.31;5091017;28;20050;-63
2023/05/22 05:00:38;;;;;;;33.92;25.10;;;;;;;14.79;100.00;99076.75;5085727;28;20688;-61
2023/05/22 05:03:06;;;;;;;36.53;24.85;;;;;;;14.80;100.00;99083.78;5081457;28;20163;-62
2023/05/22 05:05:33;;;;;;;38.78;24.77;;;;;;;14.87;100.00;99084.25;5078896;28;20608;-61
2023/05/22 05:08:01;;;;;;;36.83;25.75;;;;;;;14.81;100.00;99085.38;5066705;28;20158;-62
2023/05/22 05:10:30;;;;;;;41.65;26.73;;;;;;;14.64;100.00;99079.47;5082946;28;20496;-61
2023/05/22 05:12:57;;;;;;;39.30;27.98;;;;;;;14.31;100.00;99080.84;5100857;28;20414;-62
2023/05/22 05:15:26;;;;;;;39.50;26.55;;;;;;;14.50;100.00;99076.47;5083424;28;20079;-62
2023/05/22 05:17:54;;;;;;;35.78;25.10;;;;;;;14.56;100.00;99080.03;5089109;28;20120;-62
2023/05/22 05:20:21;;;;;;;42.70;27.63;;;;;;;14.76;100.00;99082.69;5096493;28;20101;-62
2023/05/22 05:22:48;;;;;;;43.20;27.02;;;;;;;15.19;100.00;99079.59;5099435;28;20084;-62
2023/05/22 05:25:16;;;;;;;34.38;24.67;;;;;;;15.46;100.00;99079.19;5080091;28;20702;-63
2023/05/22 05:27:45;;;;;;;40.65;27.98;;;;;;;15.41;100.00;99081.94;5103775;28;20050;-64
2023/05/22 05:30:12;;;;;;;49.95;31.73;;;;;;;15.74;100.00;99081.22;5103235;28;20399;-63
2023/05/22 05:32:52;;;;;;;43.80;28.13;;;;;;;15.59;100.00;99081.28;5069719;28;20051;-63
2023/05/22 05:35:26;;;;;;;38.92;25.88;;;;;;;15.12;100.00;99085.28;5080333;28;20453;-63
2023/05/22 05:38:20;;;;;;;47.67;32.55;;;;;;;15.59;100.00;99072.38;5091274;28;20456;-63
2023/05/22 05:40:48;;;;;;;47.75;28.73;;;;;;;16.07;100.00;99084.22;5080602;28;20058;-63
2023/05/22 05:43:18;;;;;;;45.08;26.52;;;;;;;16.67;100.00;99077.75;5075045;28;20051;-63
2023/05/22 05:45:45;;;;;;;39.58;27.83;;;;;;;16.81;100.00;99082.25;5087238;28;20040;-63
2023/05/22 05:48:12;;;;;;;39.83;27.08;;;;;;;17.14;96.98;99087.03;5084559;28;20595;-63
2023/05/22 05:50:42;;;;;;;34.25;24.50;;;;;;;16.93;96.86;99084.56;5086679;28;20418;-63
2023/05/22 05:53:09;;;;;;;36.25;24.60;;;;;;;16.76;96.56;99084.16;5096094;28;20344;-63
2023/05/22 05:55:37;;;;;;;35.63;24.67;;;;;;;16.67;100.00;99083.19;5081009;28;20054;-63
2023/05/22 05:58:04;;;;;;;32.72;24.02;;;;;;;16.76;98.06;99089.59;5079272;28;20046;-63
2023/05/22 06:00:42;;;;;;;37.00;22.52;;;;;;;16.77;98.36;99089.31;5086029;28;20040;-63
2023/05/22 06:03:10;;;;;;;33.65;24.55;;;;;;;16.90;98.24;99090.56;5077983;28;20484;-63
2023/05/22 06:06:04;;;;;;;41.22;28.58;;;;;;;17.01;100.00;99096.66;5090213;28;20249;-63
2023/05/22 06:08:53;;;;;;;35.65;23.77;;;;;;;17.11;98.76;99087.63;5095311;28;20054;-63
2023/05/22 06:11:27;;;;;;;56.53;30.58;;;;;;;17.40;100.00;99091.03;5085363;28;20497;-63
2023/05/22 06:13:55;;;;;;;57.38;34.83;;;;;;;16.55;100.00;99089.78;5098028;28;20035;-63
2023/05/22 06:16:23;;;;;;;46.17;32.08;;;;;;;17.05;100.00;99103.13;5085291;28;20048;-63
2023/05/22 06:18:51;;;;;;;50.53;32.95;;;;;;;16.97;100.00;99109.97;5094960;28;20089;-63
2023/05/22 06:21:19;;;;;;;51.63;31.35;;;;;;;17.24;100.00;99105.88;5056184;28;20059;-62
2023/05/22 06:23:46;;;;;;;66.85;35.17;;;;;;;17.60;99.96;99108.13;5101004;28;20036;-63
2023/05/22 06:26:14;;;;;;;52.72;33.22;;;;;;;17.92;99.79;99112.03;5087545;28;20027;-63
2023/05/22 06:28:42;;;;;;;56.05;34.35;;;;;;;18.35;95.93;99110.03;5083002;28;20054;-63
2023/05/22 06:31:09;;;;;;;60.65;35.10;;;;;;;18.92;92.99;99110.69;5075434;28;20539;-63
2023/05/22 06:33:41;;;;;;;62.13;35.80;;;;;;;18.44;95.09;99115.56;5084731;28;20470;-63
2023/05/22 06:36:10;;;;;;;56.42;35.63;;;;;;;18.82;94.69;99120.91;5082189;28;20060;-63
2023/05/22 06:38:38;;;;;;;62.17;34.92;;;;;;;18.23;96.32;99117.81;5088106;28;20043;-63
2023/05/22 06:41:06;;;;;;;61.53;34.50;;;;;;;18.41;97.11;99118.88;5084071;28;20044;-63
2023/05/22 06:43:34;;;;;;;56.33;33.45;;;;;;;18.53;95.48;99121.94;5085874;28;20522;-63
2023/05/22 06:46:08;;;;;;;63.03;34.15;;;;;;;18.44;96.12;99121.81;5088253;28;20036;-63
2023/05/22 06:48:46;;;;;;;63.42;33.40;;;;;;;18.86;94.31;99132.78;5084527;28;20048;-63
2023/05/22 06:51:23;;;;;;;52.33;33.05;;;;;;;18.67;93.64;99130.94;5087350;28;20046;-63
2023/05/22 06:53:52;;;;;;;52.67;33.15;;;;;;;18.62;96.50;99122.88;5098074;28;20027;-63
2023/05/22 06:56:24;;;;;;;52.45;34.28;;;;;;;18.64;93.34;99125.28;5088374;28;20051;-63
2023/05/22 06:58:57;;;;;;;54.10;31.52;;;;;;;18.93;92.80;99131.28;5083022;28;20039;-63
2023/05/22 07:01:35;;;;;;;51.13;30.92;;;;;;;20.97;84.64;99127.06;5082846;28;20421;-63
2023/05/22 07:04:12;;;;;;;49.85;31.25;;;;;;;22.47;74.61;99128.59;5086559;28;20487;-63
2023/05/22 07:06:51;;;;;;;42.67;28.25;;;;;;;22.16;74.53;99128.75;5083442;28;20109;-64
2023/05/22 07:09:19;;;;;;;44.40;27.67;;;;;;;22.18;75.42;99132.75;5079780;28;20041;-63
2023/05/22 07:11:48;;;;;;;43.47;29.15;;;;;;;21.84;75.41;99128.13;5078328;28;20054;-61
2023/05/22 07:14:16;;;;;;;41.75;28.58;;;;;;;21.90;76.40;99131.50;5061225;28;20124;-61
2023/05/22 07:16:45;;;;;;;46.33;29.10;;;;;;;22.05;74.62;99133.75;5081759;28;20044;-62
2023/05/22 07:19:15;;;;;;;43.22;29.60;;;;;;;22.31;74.41;99141.16;5084078;28;20861;-61
2023/05/22 07:21:44;;;;;;;47.40;30.17;;;;;;;21.70;75.98;99136.44;5081132;28;20346;-61
2023/05/22 07:24:14;;;;;;;42.70;30.13;;;;;;;22.68;72.62;99136.91;5078923;28;20064;-61
2023/05/22 07:26:45;;;;;;;45.80;29.45;;;;;;;22.58;71.31;99140.78;5084310;28;20104;-62
2023/05/22 07:29:12;;;;;;;46.05;29.02;;;;;;;21.68;76.30;99141.41;5085717;28;20370;-61
2023/05/22 07:31:41;;;;;;;45.70;29.33;;;;;;;22.05;75.13;99143.84;5079691;28;20106;-61
2023/05/22 07:34:08;;;;;;;41.72;29.02;;;;;;;21.35;78.00;99140.19;5083974;28;20052;-61
2023/05/22 07:36:37;;;;;;;41.95;28.45;;;;;;;22.55;73.70;99140.66;5069306;28;20052;-61
2023/05/22 07:39:05;;;;;;;42.30;27.70;;;;;;;23.38;68.06;99147.63;5078549;28;20037;-62
2023/05/22 07:41:36;;;;;;;39.67;27.40;;;;;;;21.35;76.45;99148.34;5080393;28;20041;-62
2023/05/22 07:44:05;;;;;;;46.60;28.08;;;;;;;22.46;73.83;99148.84;5079302;28;20068;-61
2023/05/22 07:46:36;;;;;;;42.63;27.83;;;;;;;24.31;65.51;99140.22;5087444;28;20054;-62
2023/05/22 07:49:19;;;;;;;39.60;26.70;;;;;;;23.56;67.09;99145.59;5072632;28;20498;-62
2023/05/22 07:51:48;;;;;;;39.83;27.83;;;;;;;23.76;67.38;99144.84;5080443;28;20510;-61
2023/05/22 07:54:17;;;;;;;45.42;26.80;;;;;;;25.61;59.92;99143.50;5082561;28;20028;-61
2023/05/22 07:56:46;;;;;;;37.72;25.20;;;;;;;25.26;61.63;99140.41;5081868;28;20043;-61
2023/05/22 07:59:18;;;;;;;40.92;27.17;;;;;;;23.23;68.09;99152.50;5082857;28;20040;-61
2023/05/22 08:01:45;;;;;;;39.92;28.17;;;;;;;23.93;66.51;99145.88;5085405;28;20048;-61
2023/05/22 08:04:12;;;;;;;44.75;28.58;;;;;;;23.69;66.83;99150.03;5078460;28;20043;-61
2023/05/22 08:06:40;;;;;;;48.45;26.52;;;;;;;25.46;61.06;99145.00;5083839;28;20036;-61
2023/05/22 08:09:10;;;;;;;49.65;28.08;;;;;;;24.73;63.00;99130.00;5083780;28;20084;-62
2023/05/22 08:11:40;;;;;;;48.70;27.95;;;;;;;22.96;68.03;99148.22;5099074;28;20127;-61
2023/05/22 08:14:07;;;;;;;43.90;28.15;;;;;;;23.96;67.19;99142.47;5097829;28;20067;-62
2023/05/22 08:16:34;;;;;;;40.53;26.48;;;;;;;22.88;70.79;99142.81;5090244;28;20491;-61
2023/05/22 08:19:02;;;;;;;34.45;25.90;;;;;;;23.47;68.26;99138.25;5091425;28;20089;-62
2023/05/22 08:21:31;;;;;;;36.65;25.08;;;;;;;23.63;67.52;99143.13;5100853;28;20040;-64
2023/05/22 08:23:58;;;;;;;38.33;23.67;;;;;;;25.23;62.03;99143.81;5096250;28;20043;-61
2023/05/22 08:26:27;;;;;;;36.58;23.60;;;;;;;24.89;61.69;99148.56;5101196;28;20052;-61
2023/05/22 08:28:54;;;;;;;33.95;24.95;;;;;;;24.08;63.35;99150.75;5100813;28;20052;-61
2023/05/22 08:31:21;;;;;;;34.78;23.70;;;;;;;23.39;66.40;99149.25;5101215;28;20130;-61
2023/05/22 08:33:48;;;;;;;35.17;25.88;;;;;;;23.25;68.57;99150.25;5096961;28;20056;-61
2023/05/22 08:36:15;;;;;;;37.70;25.48;;;;;;;22.74;71.82;99148.47;5097893;28;20067;-61
2023/05/22 08:38:42;;;;;;;37.40;23.50;;;;;;;24.10;66.04;99143.00;5095292;28;20048;-61
2023/05/22 08:41:10;;;;;;;37.50;23.35;;;;;;;23.25;68.44;99144.78;5097420;28;20040;-62
2023/05/22 08:43:38;;;;;;;44.28;24.98;;;;;;;23.53;67.34;99146.25;5098644;28;20052;-62
2023/05/22 08:46:08;;;;;;;33.08;23.25;;;;;;;24.32;65.06;99139.91;5105042;28;20124;-62
2023/05/22 08:48:35;;;;;;;39.55;23.92;;;;;;;24.67;63.28;99136.84;5082778;28;20564;-61
2023/05/22 08:51:03;;;;;;;30.55;23.17;;;;;;;24.57;63.33;99134.56;5099775;28;20396;-62
2023/05/22 08:53:31;;;;;;;34.75;21.95;;;;;;;25.09;61.79;99133.19;5095495;28;20135;-61
2023/05/22 08:55:58;;;;;;;31.65;22.00;;;;;;;25.15;61.07;99127.09;5104571;28;20043;-61
2023/05/22 08:58:25;;;;;;;35.80;22.05;;;;;;;23.68;67.17;99132.78;5088785;28;20040;-62
2023/05/22 09:00:54;;;;;;;31.27;20.73;;;;;;;26.04;60.66;99128.31;5094436;28;20036;-62
2023/05/22 09:03:21;;;;;;;32.83;20.48;;;;;;;26.82;55.61;99132.44;5095720;28;20042;-62
2023/05/22 09:05:49;;;;;;;33.92;21.65;;;;;;;24.36;65.17;99131.81;5093389;28;20063;-62
2023/05/22 09:08:17;;;;;;;27.73;20.60;;;;;;;24.63;63.17;99133.19;5102497;28;20055;-62
2023/05/22 09:10:44;;;;;;;40.47;22.52;;;;;;;24.18;63.53;99128.44;5099057;28;20052;-62
2023/05/22 09:13:16;;;;;;;31.65;19.40;;;;;;;25.35;60.98;99132.84;5092824;28;20036;-61
2023/05/22 09:15:43;;;;;;;33.70;17.90;;;;;;;26.24;57.67;99138.31;5103400;28;20077;-61
2023/05/22 09:18:12;;;;;;;32.60;21.27;;;;;;;25.64;58.85;99136.50;5074546;28;20135;-61
2023/05/22 09:20:39;;;;;;;32.38;19.83;;;;;;;24.08;64.02;99134.31;5096143;28;20048;-61
2023/05/22 09:23:11;;;;;;;29.08;20.83;;;;;;;23.53;67.22;99135.31;5095124;28;20067;-61
2023/05/22 09:25:38;;;;;;;33.92;22.13;;;;;;;23.75;65.67;99135.03;5102799;28;20057;-61
2023/05/22 09:28:05;;;;;;;31.00;20.73;;;;;;;24.26;64.21;99138.53;5103080;28;20638;-61
2023/05/22 09:30:34;;;;;;;28.55;19.25;;;;;;;25.29;61.45;99135.03;5100722;28;20154;-61
2023/05/22 09:33:01;;;;;;;;;;;;;;;24.63;61.08;99135.13;5102827;28;20532;-61
2023/05/22 09:35:31;;;;;;;33.78;20.75;;;;;;;24.47;63.43;99129.50;5095213;28;19988;-61
2023/05/22 09:37:58;;;;;;;;;;;;;;;24.40;64.63;99131.94;5097770;28;20421;-61
2023/05/22 09:40:26;;;;;;;33.65;19.67;;;;;;;25.74;59.41;99133.28;5099374;28;19954;-61
2023/05/22 09:42:53;;;;;;;36.97;20.13;;;;;;;25.39;59.39;99129.09;5096076;28;20044;-61
2023/05/22 09:45:22;;;;;;;29.88;19.75;;;;;;;25.18;60.13;99122.91;5098369;28;20450;-61
2023/05/22 09:47:50;;;;;;;28.52;17.92;;;;;;;25.56;58.80;99129.97;5094419;28;20043;-63
2023/05/22 09:50:19;;;;;;;37.65;18.95;;;;;;;25.50;59.21;99118.44;5099558;28;20356;-63
2023/05/22 09:52:48;;;;;;;33.75;19.15;;;;;;;25.58;59.14;99128.50;5100445;28;20814;-61
2023/05/22 09:55:15;;;;;;;27.17;18.60;;;;;;;25.98;57.32;99130.50;5098889;28;20040;-63
2023/05/22 09:57:43;;;;;;;32.17;19.98;;;;;;;24.15;62.92;99128.31;5103980;28;20060;-63
2023/05/22 10:00:16;;;;;;;24.80;16.73;;;;;;;25.25;59.35;99125.09;5101922;28;20447;-63
2023/05/22 10:02:46;;;;;;;31.17;16.80;;;;;;;25.87;57.11;99134.88;5066721;28;20044;-61
2023/05/22 10:05:20;;;;;;;29.73;16.65;;;;;;;26.52;54.99;99129.25;5100568;28;20042;-61
2023/05/22 10:07:49;;;;;;;27.45;16.80;;;;;;;24.69;59.77;99126.38;5101140;28;20115;-61
2023/05/22 10:10:17;;;;;;;30.20;16.42;;;;;;;26.66;54.34;99134.38;5097544;28;20574;-61
2023/05/22 10:12:47;;;;;;;34.17;16.45;;;;;;;25.79;57.13;99127.56;5102349;28;20524;-61
2023/05/22 10:15:14;;;;;;;25.77;15.82;;;;;;;26.54;53.96;99128.97;5094255;28;20366;-61
2023/05/22 10:17:41;;;;;;;28.25;16.77;;;;;;;25.85;55.31;99126.19;5099755;28;20051;-60
2023/05/22 10:20:09;;;;;;;29.73;17.25;;;;;;;25.78;57.51;99121.25;5094316;27;20128;-61
2023/05/22 10:22:37;;;;;;;28.55;18.13;;;;;;;23.90;61.95;99118.03;5102297;27;20130;-61
2023/05/22 10:25:06;;;;;;;27.48;18.67;;;;;;;24.22;61.85;99129.38;5101139;27;20044;-61
2023/05/22 10:27:33;;;;;;;;;;;;;;;25.92;57.58;99115.44;5096598;28;20499;-61
2023/05/22 10:30:06;;;;;;;28.60;19.02;;;;;;;24.96;60.60;99108.50;5108062;28;19924;-61
2023/05/22 10:32:39;;;;;;;31.42;18.70;;;;;;;25.16;61.24;99106.81;5100385;28;20475;-62
2023/05/22 10:35:08;;;;;;;;;;;;;;;25.22;59.12;99115.59;5089877;28;20040;-60
2023/05/22 10:37:45;;;;;;;27.02;17.08;;;;;;;25.83;58.03;99101.00;5101571;27;19931;-63
2023/05/22 10:40:15;;;;;;;29.90;19.05;;;;;;;25.70;59.19;99102.19;5080855;28;20035;-63
2023/05/22 10:42:43;;;;;;;;;;;;;;;24.93;62.72;99105.63;5103490;28;20974;-63
2023/05/22 10:45:10;;;;;;;30.55;19.85;;;;;;;24.52;61.41;99096.41;5102486;28;19973;-62
2023/05/22 10:47:37;;;;;;;27.52;17.92;;;;;;;25.51;59.40;99089.88;5104060;28;20541;-63
2023/05/22 10:50:07;;;;;;;32.05;19.27;;;;;;;24.77;61.54;99089.03;5102215;28;20496;-62
2023/05/22 10:52:35;;;;;;;29.38;20.05;;;;;;;24.69;62.30;99093.47;5082151;28;20039;-62
2023/05/22 10:55:05;;;;;;;29.42;20.05;;;;;;;24.75;61.77;99097.59;5097768;28;20116;-63
2023/05/22 10:57:34;;;;;;;27.67;20.45;;;;;;;25.15;62.07;99091.47;5105137;28;20055;-63
2023/05/22 11:00:09;;;;;;;34.30;19.92;;;;;;;25.99;58.31;99093.66;5100553;28;20039;-63
2023/05/22 11:02:40;;;;;;;26.80;18.60;;;;;;;26.70;57.40;99088.53;5087575;28;20044;-63
2023/05/22 11:05:36;;;;;;;28.90;20.15;;;;;;;24.95;63.18;99089.63;5103585;28;20514;-63
2023/05/22 11:08:10;;;;;;;23.98;17.23;;;;;;;25.40;61.48;99083.25;5102034;28;20134;-63
2023/05/22 11:10:53;;;;;;;32.30;20.27;;;;;;;24.73;62.50;99096.34;5102059;28;20054;-63
2023/05/22 11:13:21;;;;;;;25.70;18.77;;;;;;;24.72;64.25;99086.53;5105098;28;20517;-63
2023/05/22 11:15:48;;;;;;;26.58;20.23;;;;;;;24.61;64.63;99088.91;5105518;28;20510;-61
2023/05/22 11:18:15;;;;;;;30.65;19.65;;;;;;;24.46;65.18;99089.53;5102770;28;20068;-62
2023/05/22 11:20:43;;;;;;;25.90;18.30;;;;;;;25.75;61.31;99077.25;5107603;28;20056;-61
2023/05/22 11:23:10;;;;;;;27.05;18.13;;;;;;;24.63;64.87;99075.66;5087519;28;20036;-61
2023/05/22 11:25:38;;;;;;;24.13;18.60;;;;;;;24.72;62.90;99081.84;5104137;28;20047;-62